createdAt,value
2019-03-27T00:02:40.225Z,9.60
2019-03-27T00:08:08.049Z,9.70
2019-03-27T00:10:49.261Z,9.70
2019-03-27T00:13:30.815Z,9.70
2019-03-27T00:16:12.082Z,9.70
2019-03-27T00:18:54.250Z,9.60
2019-03-27T00:24:25.374Z,9.60
2019-03-27T00:27:05.791Z,9.60
2019-03-27T00:29:47.220Z,9.50
2019-03-27T00:35:09.987Z,9.60
2019-03-27T00:37:58.898Z,9.60
2019-03-27T00:43:44.891Z,9.50
2019-03-27T00:46:35.198Z,9.50
2019-03-27T00:49:25.262Z,9.40
2019-03-27T00:52:14.499Z,9.40
2019-03-27T00:55:04.108Z,9.50
2019-03-27T00:57:53.241Z,9.40
2019-03-27T01:01:01.223Z,9.30
2019-03-27T01:04:30.749Z,9.30
2019-03-27T01:07:21.150Z,9.30
2019-03-27T01:10:10.485Z,9.40
2019-03-27T01:13:02.274Z,9.40
2019-03-27T01:16:10.229Z,9.50
2019-03-27T01:18:59.298Z,9.50
2019-03-27T01:21:48.405Z,9.50
2019-03-27T01:24:31.062Z,9.50
2019-03-27T01:27:16.220Z,9.60
2019-03-27T01:29:57.951Z,9.50
2019-03-27T01:32:41.181Z,9.50
2019-03-27T01:35:11.625Z,9.50
2019-03-27T01:41:09.182Z,9.40
2019-03-27T01:43:58.236Z,9.30
2019-03-27T01:46:47.809Z,9.20
2019-03-27T01:49:28.984Z,9.10
2019-03-27T01:52:10.878Z,9.20
2019-03-27T01:54:53.342Z,9.40
2019-03-27T02:00:24.055Z,9.40
2019-03-27T02:05:44.655Z,9.40
2019-03-27T02:08:26.266Z,9.40
2019-03-27T02:11:07.561Z,9.40
2019-03-27T02:13:49.426Z,9.40
2019-03-27T02:16:31.012Z,9.40
2019-03-27T02:19:12.750Z,9.40
2019-03-27T02:21:54.156Z,9.40
2019-03-27T02:27:17.651Z,9.40
2019-03-27T02:29:59.527Z,9.40
2019-03-27T02:32:41.671Z,9.40
2019-03-27T02:35:26.160Z,9.30
2019-03-27T02:40:51.656Z,9.40
2019-03-27T02:46:46.678Z,9.40
2019-03-27T02:49:29.567Z,9.40
2019-03-27T02:54:55.976Z,9.30
2019-03-27T03:00:21.070Z,9.30
2019-03-27T03:03:01.394Z,9.30
2019-03-27T03:05:43.482Z,9.40
2019-03-27T03:08:24.619Z,9.50
2019-03-27T03:11:05.302Z,9.50
2019-03-27T03:13:47.597Z,9.40
2019-03-27T03:16:42.372Z,9.30
2019-03-27T03:19:12.909Z,9.30
2019-03-27T03:21:55.426Z,9.40
2019-03-27T03:24:37.251Z,9.40
2019-03-27T03:27:18.940Z,9.50
2019-03-27T03:30:00.434Z,9.50
2019-03-27T03:32:40.696Z,9.50
2019-03-27T03:35:22.555Z,9.50
2019-03-27T03:38:04.527Z,9.30
2019-03-27T03:43:25.274Z,9.20
2019-03-27T03:48:42.284Z,9.20
2019-03-27T03:51:32.099Z,9.30
2019-03-27T03:54:21.811Z,9.30
2019-03-27T03:57:11.069Z,9.40
2019-03-27T04:03:15.065Z,9.40
2019-03-27T04:06:05.070Z,9.40
2019-03-27T04:09:13.275Z,9.40
2019-03-27T04:12:02.917Z,9.40
2019-03-27T04:14:44.913Z,9.40
2019-03-27T04:17:26.539Z,9.40
2019-03-27T04:20:08.136Z,9.40
2019-03-27T04:22:49.717Z,9.40
2019-03-27T04:25:53.844Z,9.40
2019-03-27T04:28:18.083Z,9.40
2019-03-27T04:30:59.489Z,9.30
2019-03-27T04:36:30.616Z,9.40
2019-03-27T04:39:13.624Z,9.30
2019-03-27T04:41:55.323Z,9.20
2019-03-27T04:44:37.520Z,9.20
2019-03-27T04:47:31.462Z,9.20
2019-03-27T04:50:03.266Z,9.10
2019-03-27T04:52:46.127Z,9.00
2019-03-27T04:55:28.063Z,9.10
2019-03-27T05:00:55.951Z,9.20
2019-03-27T05:03:36.266Z,9.20
2019-03-27T05:06:18.249Z,9.30
2019-03-27T05:08:59.903Z,9.30
2019-03-27T05:11:41.711Z,9.30
2019-03-27T05:14:24.073Z,9.30
2019-03-27T05:19:43.968Z,9.30
2019-03-27T05:22:28.137Z,9.30
2019-03-27T05:25:09.663Z,9.30
2019-03-27T05:27:51.880Z,9.30
2019-03-27T05:30:32.215Z,9.30
2019-03-27T05:33:14.049Z,9.30
2019-03-27T05:35:55.604Z,9.30
2019-03-27T05:38:37.820Z,9.30
2019-03-27T05:41:20.189Z,9.40
2019-03-27T05:44:00.846Z,9.40
2019-03-27T05:46:43.155Z,9.40
2019-03-27T05:52:03.756Z,9.40
2019-03-27T05:57:29.952Z,9.40
2019-03-27T06:00:12.936Z,9.40
2019-03-27T06:02:53.126Z,9.50
2019-03-27T06:05:34.923Z,9.50
2019-03-27T06:08:16.480Z,9.50
2019-03-27T06:10:58.417Z,9.50
2019-03-27T06:16:32.495Z,9.60
2019-03-27T06:19:13.783Z,9.60
2019-03-27T06:21:44.371Z,9.70
2019-03-27T06:27:41.826Z,9.90
2019-03-27T06:30:31.371Z,9.90
2019-03-27T06:33:21.058Z,9.90
2019-03-27T06:36:10.854Z,9.90
2019-03-27T06:39:00.551Z,9.90
2019-03-27T06:41:50.230Z,9.80
2019-03-27T06:47:36.752Z,9.80
2019-03-27T06:50:26.562Z,9.80
2019-03-27T06:53:16.078Z,9.90
2019-03-27T06:56:05.823Z,9.90
2019-03-27T06:58:55.708Z,10.10
2019-03-27T07:05:22.708Z,10.40
2019-03-27T07:07:45.558Z,10.50
2019-03-27T07:10:31.245Z,10.50
2019-03-27T07:13:11.607Z,10.60
2019-03-27T07:15:53.134Z,10.60
2019-03-27T07:21:23.510Z,10.80
2019-03-27T07:26:50.331Z,10.90
2019-03-27T07:32:10.415Z,11.10
2019-03-27T07:34:52.655Z,11.30
2019-03-27T07:37:36.613Z,11.40
2019-03-27T07:42:51.517Z,11.50
2019-03-27T07:45:40.749Z,11.40
2019-03-27T07:48:29.879Z,11.50
2019-03-27T07:51:13.647Z,11.50
2019-03-27T07:53:55.514Z,11.60
2019-03-27T07:56:38.735Z,11.70
2019-03-27T07:59:19.545Z,11.90
2019-03-27T08:02:03.865Z,11.90
2019-03-27T08:04:45.855Z,11.90
2019-03-27T08:07:27.293Z,11.90
2019-03-27T08:10:11.458Z,12.00
2019-03-27T08:12:41.640Z,11.90
2019-03-27T08:15:30.969Z,12.10
2019-03-27T08:18:20.216Z,12.20
2019-03-27T08:21:09.728Z,12.30
2019-03-27T08:23:58.928Z,12.30
2019-03-27T08:26:48.547Z,12.50
2019-03-27T08:29:37.969Z,12.40
2019-03-27T08:32:27.242Z,12.40
2019-03-27T08:35:16.907Z,12.60
2019-03-27T08:41:53.087Z,12.80
2019-03-27T08:44:42.501Z,12.80
2019-03-27T08:47:31.684Z,12.90
2019-03-27T08:50:20.834Z,13.10
2019-03-27T08:53:10.066Z,13.10
2019-03-27T08:55:58.930Z,13.40
2019-03-27T08:58:48.103Z,13.50
2019-03-27T09:01:37.575Z,13.40
2019-03-27T09:04:26.922Z,13.50
2019-03-27T09:07:09.324Z,13.60
2019-03-27T09:09:50.418Z,13.70
2019-03-27T09:12:32.396Z,13.70
2019-03-27T09:15:13.683Z,13.40
2019-03-27T09:17:57.884Z,13.30
2019-03-27T09:20:39.374Z,13.50
2019-03-27T09:23:21.005Z,13.30
2019-03-27T09:26:02.463Z,13.40
2019-03-27T09:28:43.880Z,13.30
2019-03-27T09:31:25.674Z,13.50
2019-03-27T09:34:07.686Z,13.50
2019-03-27T09:36:48.970Z,13.80
2019-03-27T09:39:30.539Z,13.90
2019-03-27T09:42:12.475Z,14.20
2019-03-27T09:44:54.296Z,14.30
2019-03-27T09:47:40.705Z,14.20
2019-03-27T09:50:24.926Z,14.40
2019-03-27T09:53:08.456Z,14.50
2019-03-27T09:58:39.724Z,14.40
2019-03-27T10:01:21.580Z,14.70
2019-03-27T10:04:02.779Z,15.00
2019-03-27T10:06:43.800Z,15.30
2019-03-27T10:09:25.056Z,14.90
2019-03-27T10:14:52.911Z,14.70
2019-03-27T10:17:37.622Z,15.10
2019-03-27T10:23:05.976Z,14.90
2019-03-27T10:28:32.090Z,15.00
2019-03-27T10:31:13.154Z,15.40
2019-03-27T10:33:43.385Z,15.70
2019-03-27T10:39:34.617Z,15.40
2019-03-27T10:42:23.477Z,15.10
2019-03-27T10:45:13.099Z,15.60
2019-03-27T10:47:43.510Z,15.60
2019-03-27T10:50:32.879Z,15.10
2019-03-27T10:53:22.154Z,15.10
2019-03-27T10:56:11.319Z,15.40
2019-03-27T10:59:14.348Z,15.60
2019-03-27T11:01:43.895Z,15.80
2019-03-27T11:04:25.640Z,16.00
2019-03-27T11:07:05.496Z,15.90
2019-03-27T11:09:47.899Z,15.70
2019-03-27T11:12:28.877Z,15.70
2019-03-27T11:15:10.884Z,16.10
2019-03-27T11:17:53.256Z,16.00
2019-03-27T11:26:22.625Z,15.50
2019-03-27T11:29:03.867Z,15.80
2019-03-27T11:31:46.142Z,16.00
2019-03-27T11:37:08.032Z,16.10
2019-03-27T11:39:39.718Z,15.50
2019-03-27T11:42:30.804Z,15.10
2019-03-27T11:45:38.443Z,15.30
2019-03-27T11:48:27.545Z,15.40
2019-03-27T11:51:16.649Z,15.00
2019-03-27T11:57:03.492Z,15.20
2019-03-27T11:59:54.226Z,15.20
2019-03-27T12:02:43.459Z,15.00
2019-03-27T12:05:33.220Z,15.10
2019-03-27T12:08:23.188Z,14.90
2019-03-27T12:11:12.571Z,14.80
2019-03-27T12:14:01.381Z,15.10
2019-03-27T12:17:09.009Z,15.10
2019-03-27T12:19:59.263Z,15.10
2019-03-27T12:22:57.647Z,15.10
2019-03-27T12:25:40.131Z,15.20
2019-03-27T12:28:29.649Z,15.30
2019-03-27T12:31:20.928Z,15.30
2019-03-27T12:37:01.264Z,15.40
2019-03-27T12:39:43.157Z,15.40
2019-03-27T12:45:19.649Z,15.50
2019-03-27T12:50:48.735Z,15.10
2019-03-27T12:53:30.625Z,14.30
2019-03-27T12:56:12.745Z,14.30
2019-03-27T12:58:55.121Z,14.30
2019-03-27T13:01:36.495Z,14.00
2019-03-27T13:06:57.573Z,13.80
2019-03-27T13:09:39.054Z,13.50
2019-03-27T13:12:20.563Z,13.70
2019-03-27T13:14:50.657Z,13.80
2019-03-27T13:17:40.034Z,13.90
2019-03-27T13:20:34.064Z,13.80
2019-03-27T13:23:24.068Z,13.60
2019-03-27T13:26:13.135Z,13.50
2019-03-27T13:28:48.860Z,13.50
2019-03-27T13:31:34.414Z,13.50
2019-03-27T13:34:24.037Z,13.60
2019-03-27T13:37:14.493Z,13.80
2019-03-27T13:40:04.070Z,14.00
2019-03-27T13:45:43.951Z,14.30
2019-03-27T13:48:32.774Z,14.50
2019-03-27T13:51:22.388Z,14.30
2019-03-27T13:54:12.246Z,14.20
2019-03-27T13:57:01.075Z,14.10
2019-03-27T14:00:09.395Z,14.10
2019-03-27T14:02:58.226Z,13.90
2019-03-27T14:05:47.326Z,14.00
2019-03-27T14:08:56.121Z,13.70
2019-03-27T14:14:49.591Z,13.80
2019-03-27T14:17:09.870Z,13.50
2019-03-27T14:23:01.103Z,13.30
2019-03-27T14:25:49.933Z,13.20
2019-03-27T14:28:39.083Z,13.10
2019-03-27T14:34:26.155Z,13.30
2019-03-27T14:37:16.909Z,13.30
2019-03-27T14:40:06.778Z,13.20
2019-03-27T14:42:55.905Z,13.30
2019-03-27T14:45:45.776Z,13.30
2019-03-27T14:48:30.783Z,13.40
2019-03-27T14:51:13.338Z,13.50
2019-03-27T14:53:55.450Z,13.40
2019-03-27T14:59:27.668Z,13.50
2019-03-27T15:02:10.842Z,13.70
2019-03-27T15:04:53.251Z,13.80
2019-03-27T15:10:17.445Z,14.00
2019-03-27T15:13:00.526Z,14.00
2019-03-27T15:15:41.656Z,14.00
2019-03-27T15:18:26.138Z,14.00
2019-03-27T15:21:08.075Z,13.80
2019-03-27T15:26:35.254Z,13.90
2019-03-27T15:29:16.855Z,13.80
2019-03-27T15:31:59.683Z,13.90
2019-03-27T15:34:29.681Z,14.00
2019-03-27T15:37:18.469Z,13.80
2019-03-27T15:40:07.610Z,13.70
2019-03-27T15:42:56.760Z,13.50
2019-03-27T15:45:45.564Z,13.30
2019-03-27T15:51:30.244Z,13.20
2019-03-27T15:54:19.329Z,13.20
2019-03-27T15:57:09.209Z,13.10
2019-03-27T15:59:58.680Z,12.90
2019-03-27T16:02:47.580Z,12.90
2019-03-27T16:05:37.388Z,12.90
2019-03-27T16:08:07.431Z,12.70
2019-03-27T16:10:57.725Z,12.70
2019-03-27T16:13:46.853Z,12.70
2019-03-27T16:16:36.026Z,12.60
2019-03-27T16:19:25.202Z,12.50
2019-03-27T16:22:14.770Z,12.40
2019-03-27T16:25:03.964Z,12.40
2019-03-27T16:27:33.985Z,12.50
2019-03-27T16:30:04.014Z,12.50
2019-03-27T16:35:51.772Z,12.50
2019-03-27T16:39:00.700Z,12.50
2019-03-27T16:41:50.471Z,12.50
2019-03-27T16:47:07.643Z,12.50
2019-03-27T16:49:50.124Z,12.50
2019-03-27T16:52:32.310Z,12.50
2019-03-27T16:55:17.977Z,12.50
2019-03-27T17:00:47.583Z,12.20
2019-03-27T17:03:29.809Z,12.20
2019-03-27T17:06:12.157Z,12.20
2019-03-27T17:08:53.660Z,12.20
2019-03-27T17:11:36.842Z,12.20
2019-03-27T17:14:19.519Z,12.20
2019-03-27T17:19:56.091Z,12.20
2019-03-27T17:25:27.446Z,12.10
2019-03-27T17:28:09.363Z,12.00
2019-03-27T17:30:50.877Z,12.00
2019-03-27T17:36:17.974Z,12.10
2019-03-27T17:44:52.216Z,12.00
2019-03-27T17:47:33.725Z,12.00
2019-03-27T17:53:06.606Z,11.90
2019-03-27T17:58:32.772Z,11.90
2019-03-27T18:03:52.288Z,11.80
2019-03-27T18:09:49.956Z,11.70
2019-03-27T18:12:20.875Z,11.70
2019-03-27T18:14:50.891Z,11.60
2019-03-27T18:17:40.963Z,11.60
2019-03-27T18:20:11.203Z,11.60
2019-03-27T18:23:00.481Z,11.50
2019-03-27T18:25:50.486Z,11.40
2019-03-27T18:29:00.990Z,11.30
2019-03-27T18:32:09.730Z,11.20
2019-03-27T18:34:59.454Z,11.10
2019-03-27T18:37:48.658Z,11.10
2019-03-27T18:40:37.492Z,11.10
2019-03-27T18:43:26.648Z,11.20
2019-03-27T18:46:16.021Z,11.20
2019-03-27T18:48:46.344Z,11.20
2019-03-27T18:51:55.351Z,11.20
2019-03-27T18:54:44.530Z,11.20
2019-03-27T18:57:33.595Z,11.20
2019-03-27T19:00:41.576Z,11.10
2019-03-27T19:06:26.185Z,11.20
2019-03-27T19:20:39.196Z,11.10
2019-03-27T19:23:20.583Z,11.00
2019-03-27T19:26:02.664Z,11.00
2019-03-27T19:28:44.431Z,11.00
2019-03-27T19:31:28.920Z,11.00
2019-03-27T19:36:54.948Z,11.00
2019-03-27T19:48:13.063Z,10.90
2019-03-27T19:50:53.996Z,10.90
2019-03-27T19:53:35.443Z,10.90
2019-03-27T19:56:05.920Z,10.90
2019-03-27T19:58:55.037Z,10.80
2019-03-27T20:01:44.278Z,10.80
2019-03-27T20:04:33.358Z,10.80
2019-03-27T20:10:03.235Z,10.80
2019-03-27T20:12:45.039Z,10.80
2019-03-27T20:15:26.235Z,10.80
2019-03-27T20:17:56.917Z,10.80
2019-03-27T20:20:46.505Z,10.80
2019-03-27T20:26:29.685Z,10.70
2019-03-27T20:29:18.767Z,10.70
2019-03-27T20:32:09.492Z,10.70
2019-03-27T20:34:58.600Z,10.60
2019-03-27T20:37:39.892Z,10.70
2019-03-27T20:40:21.290Z,10.70
2019-03-27T20:51:51.260Z,10.70
2019-03-27T20:54:33.153Z,10.70
2019-03-27T20:57:14.814Z,10.60
2019-03-27T20:59:57.585Z,10.60
2019-03-27T21:02:39.076Z,10.70
2019-03-27T21:08:07.741Z,10.70
2019-03-27T21:10:38.288Z,10.70
2019-03-27T21:16:28.690Z,10.70
2019-03-27T21:19:17.781Z,10.50
2019-03-27T21:22:07.012Z,10.50
2019-03-27T21:27:47.366Z,10.50
2019-03-27T21:30:36.968Z,10.50
2019-03-27T21:33:25.674Z,10.60
2019-03-27T21:36:14.616Z,10.60
2019-03-27T21:41:47.551Z,10.80
2019-03-27T21:44:29.019Z,10.80
2019-03-27T21:47:10.231Z,10.60
2019-03-27T21:52:35.410Z,10.50
2019-03-27T21:58:01.890Z,10.50
2019-03-27T22:00:42.706Z,10.40
2019-03-27T22:03:24.295Z,10.30
2019-03-27T22:06:05.927Z,10.30
2019-03-27T22:08:47.818Z,10.30
2019-03-27T22:14:16.585Z,10.40
2019-03-27T22:16:57.867Z,10.30
2019-03-27T22:19:39.502Z,10.40
2019-03-27T22:22:20.921Z,10.30
2019-03-27T22:25:02.885Z,10.30
2019-03-27T22:30:28.576Z,10.20
2019-03-27T22:33:10.096Z,10.20
2019-03-27T22:35:51.151Z,10.10
2019-03-27T22:41:18.808Z,10.10
2019-03-27T22:44:02.588Z,10.10
2019-03-27T22:46:45.927Z,10.20
2019-03-27T22:55:02.112Z,10.10
2019-03-27T22:57:45.884Z,10.10
2019-03-27T23:03:22.535Z,10.10
2019-03-27T23:06:04.083Z,10.10
2019-03-27T23:08:48.273Z,10.10
2019-03-27T23:16:59.602Z,10.10
2019-03-27T23:22:25.857Z,10.00
2019-03-27T23:25:07.727Z,10.00
2019-03-27T23:33:26.200Z,10.10
2019-03-27T23:36:07.606Z,10.10
2019-03-27T23:38:49.466Z,10.10
2019-03-27T23:41:30.775Z,10.10
2019-03-27T23:46:57.362Z,10.10
2019-03-27T23:49:38.318Z,10.10
2019-03-27T23:52:19.669Z,10.10
2019-03-27T23:55:01.262Z,10.10
